createdAt,value
2023-05-21T00:00:14.469Z,8.30
2023-05-21T00:02:43.265Z,8.30
2023-05-21T00:05:15.134Z,8.20
2023-05-21T00:07:43.269Z,8.10
2023-05-21T00:10:11.510Z,8.10
2023-05-21T00:12:40.448Z,8.00
2023-05-21T00:17:37.852Z,8.00
2023-05-21T00:20:07.966Z,8.00
2023-05-21T00:25:06.115Z,7.80
2023-05-21T00:27:36.168Z,7.80
2023-05-21T00:30:07.104Z,7.70
2023-05-21T00:32:37.847Z,7.70
2023-05-21T00:35:07.812Z,7.70
2023-05-21T00:37:35.890Z,7.70
2023-05-21T00:40:08.933Z,7.70
2023-05-21T00:42:40.075Z,7.70
2023-05-21T00:45:09.527Z,7.60
2023-05-21T00:47:38.162Z,7.60
2023-05-21T00:50:09.377Z,7.60
2023-05-21T00:52:44.396Z,7.60
2023-05-21T00:55:12.254Z,7.60
2023-05-21T00:57:43.258Z,7.60
2023-05-21T01:00:19.468Z,7.60
2023-05-21T01:02:47.962Z,7.50
2023-05-21T01:05:18.083Z,7.40
2023-05-21T01:07:46.926Z,7.40
2023-05-21T01:10:17.132Z,7.20
2023-05-21T01:12:47.910Z,7.30
2023-05-21T01:15:16.246Z,7.30
2023-05-21T01:17:48.519Z,7.20
2023-05-21T01:20:19.970Z,7.20
2023-05-21T01:22:58.242Z,7.20
2023-05-21T01:25:25.992Z,7.10
2023-05-21T01:27:53.782Z,7.10
2023-05-21T01:30:23.414Z,7.00
2023-05-21T01:33:05.290Z,6.90
2023-05-21T01:35:44.319Z,6.80
2023-05-21T01:38:24.033Z,6.80
2023-05-21T01:41:07.058Z,6.80
2023-05-21T01:43:41.562Z,6.90
2023-05-21T01:46:13.059Z,6.80
2023-05-21T01:48:44.150Z,6.80
2023-05-21T01:51:13.373Z,6.70
2023-05-21T01:53:41.688Z,6.60
2023-05-21T01:56:09.532Z,6.60
2023-05-21T01:58:38.634Z,7.10
2023-05-21T02:01:06.792Z,6.50
2023-05-21T02:03:35.818Z,6.50
2023-05-21T02:06:05.455Z,6.60
2023-05-21T02:08:34.696Z,6.50
2023-05-21T02:11:02.997Z,6.50
2023-05-21T02:13:32.493Z,6.50
2023-05-21T02:16:01.777Z,6.50
2023-05-21T02:18:32.613Z,6.30
2023-05-21T02:21:00.579Z,6.30
2023-05-21T02:23:28.376Z,6.20
2023-05-21T02:25:59.099Z,6.20
2023-05-21T02:28:29.828Z,6.20
2023-05-21T02:30:59.139Z,6.20
2023-05-21T02:33:28.606Z,6.30
2023-05-21T02:35:59.168Z,6.20
2023-05-21T02:38:26.934Z,6.10
2023-05-21T02:43:23.072Z,6.00
2023-05-21T02:45:53.900Z,6.10
2023-05-21T02:48:22.974Z,6.10
2023-05-21T02:50:50.830Z,6.10
2023-05-21T02:53:18.662Z,6.00
2023-05-21T02:55:46.427Z,6.10
2023-05-21T02:58:15.535Z,6.10
2023-05-21T03:00:43.547Z,6.10
2023-05-21T03:03:12.257Z,6.10
2023-05-21T03:05:44.167Z,6.00
2023-05-21T03:08:12.808Z,7.50
2023-05-21T03:10:40.795Z,5.90
2023-05-21T03:13:10.152Z,5.70
2023-05-21T03:15:40.097Z,6.00
2023-05-21T03:18:10.646Z,5.60
2023-05-21T03:20:44.706Z,8.50
2023-05-21T03:23:16.903Z,5.60
2023-05-21T03:25:46.265Z,5.50
2023-05-21T03:28:17.734Z,5.50
2023-05-21T03:30:51.195Z,5.50
2023-05-21T03:33:57.164Z,5.50
2023-05-21T03:36:30.154Z,5.40
2023-05-21T03:38:58.350Z,5.40
2023-05-21T03:41:26.408Z,5.40
2023-05-21T03:44:05.193Z,6.20
2023-05-21T03:46:42.939Z,5.20
2023-05-21T03:49:17.937Z,5.20
2023-05-21T03:51:46.776Z,5.20
2023-05-21T03:56:47.002Z,5.10
2023-05-21T03:59:14.647Z,5.00
2023-05-21T04:01:43.730Z,5.00
2023-05-21T04:04:15.206Z,4.90
2023-05-21T04:06:43.262Z,5.00
2023-05-21T04:09:11.955Z,5.10
2023-05-21T04:14:07.786Z,5.20
2023-05-21T04:16:38.987Z,5.20
2023-05-21T04:19:07.216Z,5.30
2023-05-21T04:21:35.059Z,5.30
2023-05-21T04:24:04.271Z,5.20
2023-05-21T04:26:44.880Z,5.30
2023-05-21T04:29:18.206Z,5.50
2023-05-21T04:31:46.083Z,5.50
2023-05-21T04:34:18.011Z,5.50
2023-05-21T04:36:46.335Z,5.60
2023-05-21T04:39:15.956Z,5.60
2023-05-21T04:41:44.420Z,5.50
2023-05-21T04:44:17.299Z,5.50
2023-05-21T04:46:46.838Z,5.50
2023-05-21T04:49:15.797Z,5.50
2023-05-21T04:51:47.661Z,5.60
2023-05-21T04:54:15.829Z,5.60
2023-05-21T04:56:43.913Z,5.70
2023-05-21T04:59:11.993Z,5.80
2023-05-21T05:04:08.189Z,5.80
2023-05-21T05:06:36.489Z,6.00
2023-05-21T05:09:04.767Z,6.10
2023-05-21T05:11:34.410Z,6.10
2023-05-21T05:14:03.410Z,6.30
2023-05-21T05:16:31.336Z,6.30
2023-05-21T05:21:27.532Z,6.40
2023-05-21T05:23:55.908Z,6.60
2023-05-21T05:26:27.508Z,6.70
2023-05-21T05:28:56.100Z,6.70
2023-05-21T05:31:26.123Z,7.00
2023-05-21T05:33:54.872Z,7.10
2023-05-21T05:36:25.026Z,7.10
2023-05-21T05:38:53.530Z,7.20
2023-05-21T05:41:21.531Z,7.30
2023-05-21T05:43:50.584Z,7.30
2023-05-21T05:46:19.402Z,7.50
2023-05-21T05:51:17.534Z,7.70
2023-05-21T05:53:46.495Z,7.70
2023-05-21T05:56:14.679Z,7.60
2023-05-21T06:01:16.557Z,7.90
2023-05-21T06:03:46.569Z,8.00
2023-05-21T06:08:48.303Z,8.00
2023-05-21T06:11:17.521Z,8.20
2023-05-21T06:13:47.345Z,8.40
2023-05-21T06:16:18.022Z,8.40
2023-05-21T06:18:47.098Z,8.70
2023-05-21T06:21:16.752Z,8.90
2023-05-21T06:23:46.866Z,9.10
2023-05-21T06:26:15.624Z,9.30
2023-05-21T06:28:46.716Z,9.60
2023-05-21T06:31:16.613Z,9.90
2023-05-21T06:33:45.362Z,9.90
2023-05-21T06:36:13.225Z,10.30
2023-05-21T06:38:42.834Z,10.60
2023-05-21T06:41:11.374Z,10.80
2023-05-21T06:43:49.181Z,10.80
2023-05-21T06:46:36.001Z,11.10
2023-05-21T06:49:08.105Z,11.30
2023-05-21T06:51:36.351Z,11.50
2023-05-21T06:54:04.843Z,11.70
2023-05-21T06:56:34.818Z,11.70
2023-05-21T06:59:02.584Z,12.00
2023-05-21T07:01:30.987Z,12.10
2023-05-21T07:03:59.249Z,12.20
2023-05-21T07:06:28.457Z,12.50
2023-05-21T07:08:57.027Z,12.60
2023-05-21T07:11:28.799Z,12.60
2023-05-21T07:14:01.293Z,12.90
2023-05-21T07:16:30.137Z,13.00
2023-05-21T07:18:58.815Z,13.20
2023-05-21T07:23:55.140Z,13.30
2023-05-21T07:26:23.896Z,13.30
2023-05-21T07:28:51.659Z,13.50
2023-05-21T07:31:24.002Z,13.50
2023-05-21T07:33:54.435Z,13.70
2023-05-21T07:36:27.344Z,13.80
2023-05-21T07:38:56.116Z,13.80
2023-05-21T07:41:23.868Z,13.90
2023-05-21T07:43:53.314Z,14.00
2023-05-21T07:46:21.478Z,14.10
2023-05-21T07:51:22.617Z,14.30
2023-05-21T07:53:53.194Z,14.40
2023-05-21T07:56:27.892Z,14.40
2023-05-21T07:58:55.560Z,14.50
2023-05-21T08:01:24.433Z,14.80
2023-05-21T08:03:53.232Z,14.80
2023-05-21T08:06:22.413Z,15.10
2023-05-21T08:08:50.971Z,15.00
2023-05-21T08:11:19.090Z,15.20
2023-05-21T08:13:47.009Z,15.30
2023-05-21T08:16:15.272Z,15.40
2023-05-21T08:18:43.697Z,15.70
2023-05-21T08:21:11.888Z,15.70
2023-05-21T08:23:41.033Z,15.80
2023-05-21T08:26:09.742Z,15.80
2023-05-21T08:28:40.233Z,15.90
2023-05-21T08:31:10.990Z,15.90
2023-05-21T08:33:39.725Z,16.10
2023-05-21T08:36:07.964Z,16.30
2023-05-21T08:38:49.793Z,16.20
2023-05-21T08:41:25.103Z,16.20
2023-05-21T08:43:57.715Z,16.20
2023-05-21T08:46:33.294Z,16.00
2023-05-21T08:49:03.805Z,16.00
2023-05-21T08:54:02.745Z,16.00
2023-05-21T08:56:32.728Z,16.20
2023-05-21T08:59:01.687Z,16.30
2023-05-21T09:01:34.709Z,16.20
2023-05-21T09:04:21.387Z,16.40
2023-05-21T09:06:53.677Z,16.60
2023-05-21T09:09:58.155Z,16.80
2023-05-21T09:12:27.925Z,16.80
2023-05-21T09:14:58.775Z,17.10
2023-05-21T09:17:31.395Z,17.20
2023-05-21T09:20:14.975Z,17.30
2023-05-21T09:22:53.255Z,17.20
2023-05-21T09:25:28.117Z,17.10
2023-05-21T09:27:58.001Z,17.10
2023-05-21T09:30:34.915Z,17.00
2023-05-21T09:33:04.321Z,17.00
2023-05-21T09:35:33.490Z,17.00
2023-05-21T09:38:01.929Z,17.10
2023-05-21T09:40:30.260Z,17.10
2023-05-21T09:42:58.602Z,17.10
2023-05-21T09:45:27.754Z,17.10
2023-05-21T09:47:58.323Z,17.10
2023-05-21T09:50:34.551Z,17.20
2023-05-21T09:53:02.275Z,17.30
2023-05-21T09:55:29.955Z,17.50
2023-05-21T09:57:59.459Z,17.50
2023-05-21T10:00:31.326Z,17.70
2023-05-21T10:03:01.926Z,17.90
2023-05-21T10:05:30.967Z,18.10
2023-05-21T10:08:04.439Z,18.20
2023-05-21T10:10:34.070Z,18.30
2023-05-21T10:13:08.761Z,18.40
2023-05-21T10:15:44.547Z,18.40
2023-05-21T10:18:13.881Z,18.60
2023-05-21T10:20:42.998Z,18.80
2023-05-21T10:23:11.140Z,18.90
2023-05-21T10:25:40.200Z,19.10
2023-05-21T10:28:08.161Z,18.90
2023-05-21T10:30:37.351Z,18.70
2023-05-21T10:33:06.230Z,18.70
2023-05-21T10:35:37.181Z,18.70
2023-05-21T10:38:07.028Z,18.60
2023-05-21T10:40:36.473Z,18.60
2023-05-21T10:43:35.673Z,18.70
2023-05-21T10:46:15.019Z,18.70
2023-05-21T10:49:11.022Z,18.80
2023-05-21T10:52:20.859Z,19.20
2023-05-21T10:54:57.477Z,19.30
2023-05-21T10:57:25.039Z,19.30
2023-05-21T10:59:53.392Z,19.30
2023-05-21T11:02:21.864Z,19.70
2023-05-21T11:04:58.870Z,19.60
2023-05-21T11:07:57.866Z,19.60
2023-05-21T11:10:38.389Z,19.60
2023-05-21T11:13:24.900Z,19.60
2023-05-21T11:16:02.658Z,19.70
2023-05-21T11:18:37.911Z,18.10
2023-05-21T11:21:18.428Z,19.80
2023-05-21T11:23:59.074Z,19.90
2023-05-21T11:26:29.183Z,19.90
2023-05-21T11:29:06.308Z,20.10
2023-05-21T11:31:41.507Z,20.20
2023-05-21T11:34:18.776Z,20.10
2023-05-21T11:36:48.816Z,20.60
2023-05-21T11:39:24.338Z,20.60
2023-05-21T11:41:53.499Z,20.80
2023-05-21T11:44:40.976Z,20.80
2023-05-21T11:47:09.423Z,20.90
2023-05-21T11:49:37.735Z,21.10
2023-05-21T11:52:06.956Z,21.10
2023-05-21T11:54:51.915Z,21.60
2023-05-21T11:57:20.093Z,21.80
2023-05-21T11:59:51.785Z,21.70
2023-05-21T12:02:22.071Z,21.90
2023-05-21T12:04:51.648Z,22.20
2023-05-21T12:07:20.989Z,22.40
2023-05-21T12:09:51.181Z,22.70
2023-05-21T12:12:23.061Z,22.90
2023-05-21T12:14:52.200Z,23.00
2023-05-21T12:17:22.059Z,23.30
2023-05-21T12:19:52.389Z,23.20
2023-05-21T12:22:20.942Z,23.40
2023-05-21T12:24:49.868Z,23.50
2023-05-21T12:27:19.316Z,23.20
2023-05-21T12:29:51.057Z,23.20
2023-05-21T12:32:20.743Z,23.10
2023-05-21T12:34:53.168Z,23.10
2023-05-21T12:37:22.993Z,22.70
2023-05-21T12:39:55.550Z,22.60
2023-05-21T12:42:31.204Z,22.80
2023-05-21T12:45:00.498Z,23.10
2023-05-21T12:47:30.751Z,23.50
2023-05-21T12:49:59.391Z,23.90
2023-05-21T12:52:27.783Z,24.20
2023-05-21T12:54:57.348Z,24.40
2023-05-21T12:57:28.313Z,24.60
2023-05-21T12:59:57.697Z,24.50
2023-05-21T13:02:26.252Z,24.30
2023-05-21T13:04:59.956Z,24.20
2023-05-21T13:07:28.930Z,24.30
2023-05-21T13:09:57.449Z,24.20
2023-05-21T13:12:30.151Z,24.50
2023-05-21T13:15:00.339Z,24.40
2023-05-21T13:17:28.900Z,24.50
2023-05-21T13:20:12.430Z,25.00
2023-05-21T13:22:48.243Z,24.90
2023-05-21T13:25:21.771Z,25.20
2023-05-21T13:27:51.155Z,25.00
2023-05-21T13:30:20.191Z,25.10
2023-05-21T13:32:48.430Z,25.40
2023-05-21T13:35:17.517Z,25.70
2023-05-21T13:37:46.198Z,26.00
2023-05-21T13:40:16.887Z,26.40
2023-05-21T13:42:46.502Z,26.70
2023-05-21T13:45:20.149Z,27.00
2023-05-21T13:47:48.687Z,26.70
2023-05-21T13:50:17.661Z,26.30
2023-05-21T13:52:47.279Z,26.00
2023-05-21T13:55:16.314Z,26.10
2023-05-21T13:57:44.651Z,26.50
2023-05-21T14:00:15.677Z,27.00
2023-05-21T14:02:45.875Z,27.00
2023-05-21T14:05:14.502Z,26.50
2023-05-21T14:07:43.807Z,26.70
2023-05-21T14:10:12.882Z,26.70
2023-05-21T14:12:41.200Z,27.00
2023-05-21T14:15:09.870Z,27.00
2023-05-21T14:17:40.309Z,26.90
2023-05-21T14:20:09.821Z,27.00
2023-05-21T14:22:38.547Z,27.10
2023-05-21T14:25:06.734Z,27.20
2023-05-21T14:30:08.801Z,27.20
2023-05-21T14:32:37.212Z,27.10
2023-05-21T14:35:05.456Z,26.80
2023-05-21T14:37:33.166Z,26.80
2023-05-21T14:40:01.179Z,27.10
2023-05-21T14:42:28.978Z,27.50
2023-05-21T14:44:58.853Z,27.90
2023-05-21T14:47:28.056Z,28.40
2023-05-21T14:49:55.931Z,28.70
2023-05-21T14:52:26.611Z,29.00
2023-05-21T14:54:54.471Z,29.10
2023-05-21T14:57:23.152Z,29.50
2023-05-21T14:59:51.901Z,29.10
2023-05-21T15:02:19.754Z,28.70
2023-05-21T15:04:47.550Z,28.30
2023-05-21T15:07:16.030Z,27.60
2023-05-21T15:12:12.519Z,27.60
2023-05-21T15:14:41.011Z,28.10
2023-05-21T15:17:09.871Z,28.30
2023-05-21T15:19:37.739Z,28.60
2023-05-21T15:22:05.523Z,28.90
2023-05-21T15:24:35.942Z,29.30
2023-05-21T15:27:03.911Z,29.40
2023-05-21T15:29:31.983Z,29.40
2023-05-21T15:32:01.219Z,29.40
2023-05-21T15:34:29.739Z,29.20
2023-05-21T15:37:00.929Z,29.30
2023-05-21T15:39:29.052Z,29.40
2023-05-21T15:41:56.795Z,29.40
2023-05-21T15:44:28.828Z,28.80
2023-05-21T15:47:00.026Z,28.20
2023-05-21T15:52:04.158Z,27.70
2023-05-21T15:54:32.021Z,28.00
2023-05-21T15:56:59.843Z,28.30
2023-05-21T15:59:27.700Z,28.10
2023-05-21T16:01:57.321Z,28.10
2023-05-21T16:04:43.919Z,28.50
2023-05-21T16:07:14.272Z,29.00
2023-05-21T16:09:42.735Z,29.10
2023-05-21T16:12:11.885Z,29.10
2023-05-21T16:14:40.528Z,29.50
2023-05-21T16:17:08.696Z,29.60
2023-05-21T16:19:38.743Z,29.80
2023-05-21T16:22:07.854Z,29.80
2023-05-21T16:24:37.379Z,29.60
2023-05-21T16:27:05.359Z,29.20
2023-05-21T16:29:33.021Z,31.70
2023-05-21T16:32:01.008Z,28.40
2023-05-21T16:34:29.247Z,28.10
2023-05-21T16:36:57.079Z,28.00
2023-05-21T16:39:25.234Z,28.10
2023-05-21T16:41:55.222Z,27.90
2023-05-21T16:44:23.028Z,27.90
2023-05-21T16:46:51.206Z,28.40
2023-05-21T16:49:20.025Z,28.70
2023-05-21T16:51:47.645Z,29.80
2023-05-21T16:54:15.531Z,28.30
2023-05-21T16:56:43.546Z,28.10
2023-05-21T16:59:11.419Z,28.10
2023-05-21T17:01:39.598Z,28.40
2023-05-21T17:06:35.752Z,28.70
2023-05-21T17:09:03.925Z,28.60
2023-05-21T17:11:32.080Z,28.40
2023-05-21T17:14:01.297Z,28.00
2023-05-21T17:16:29.094Z,27.40
2023-05-21T17:18:56.940Z,27.40
2023-05-21T17:23:54.153Z,26.60
2023-05-21T17:26:22.480Z,27.90
2023-05-21T17:28:50.583Z,27.90
2023-05-21T17:31:18.307Z,27.40
2023-05-21T17:33:46.364Z,27.00
2023-05-21T17:36:14.153Z,27.00
2023-05-21T17:38:42.099Z,27.00
2023-05-21T17:41:10.384Z,27.10
2023-05-21T17:43:38.154Z,27.10
2023-05-21T17:46:07.573Z,27.20
2023-05-21T17:48:36.204Z,27.20
2023-05-21T17:51:04.821Z,26.90
2023-05-21T17:53:32.540Z,26.80
2023-05-21T17:56:00.267Z,26.40
2023-05-21T17:58:32.536Z,25.80
2023-05-21T18:01:00.601Z,25.80
2023-05-21T18:03:28.381Z,25.60
2023-05-21T18:05:56.355Z,25.80
2023-05-21T18:10:52.604Z,26.20
2023-05-21T18:13:20.245Z,26.20
2023-05-21T18:15:48.405Z,26.40
2023-05-21T18:18:20.730Z,26.70
2023-05-21T18:20:50.254Z,26.90
2023-05-21T18:23:18.403Z,26.30
2023-05-21T18:25:46.690Z,26.20
2023-05-21T18:28:14.607Z,25.70
2023-05-21T18:30:43.082Z,25.40
2023-05-21T18:35:41.544Z,25.20
2023-05-21T18:38:12.241Z,25.20
2023-05-21T18:43:10.848Z,25.20
2023-05-21T18:45:40.969Z,25.20
2023-05-21T18:48:08.673Z,24.80
2023-05-21T18:50:37.408Z,24.70
2023-05-21T18:53:06.376Z,24.50
2023-05-21T18:55:35.132Z,24.20
2023-05-21T18:58:03.458Z,24.10
2023-05-21T19:00:34.390Z,24.00
2023-05-21T19:03:02.866Z,24.00
2023-05-21T19:05:30.958Z,23.90
2023-05-21T19:07:59.494Z,23.80
2023-05-21T19:10:27.351Z,23.50
2023-05-21T19:12:55.213Z,23.50
2023-05-21T19:15:22.899Z,23.40
2023-05-21T19:17:51.926Z,23.20
2023-05-21T19:20:29.998Z,23.20
2023-05-21T19:22:58.128Z,23.20
2023-05-21T19:25:25.791Z,23.00
2023-05-21T19:27:53.948Z,22.50
2023-05-21T19:30:22.005Z,21.20
2023-05-21T19:32:53.139Z,20.60
2023-05-21T19:35:22.523Z,20.50
2023-05-21T19:37:50.586Z,19.70
2023-05-21T19:40:21.200Z,19.60
2023-05-21T19:45:18.433Z,18.70
2023-05-21T19:47:51.470Z,18.40
2023-05-21T19:50:26.763Z,18.20
2023-05-21T19:52:55.756Z,18.10
2023-05-21T19:55:24.785Z,17.90
2023-05-21T19:57:52.936Z,17.70
2023-05-21T20:00:21.107Z,17.70
2023-05-21T20:02:48.638Z,17.50
2023-05-21T20:05:16.462Z,17.50
2023-05-21T20:07:46.625Z,17.40
2023-05-21T20:10:14.312Z,17.10
2023-05-21T20:12:42.666Z,16.90
2023-05-21T20:15:13.245Z,16.80
2023-05-21T20:17:44.309Z,16.80
2023-05-21T20:20:15.083Z,16.60
2023-05-21T20:22:43.587Z,16.50
2023-05-21T20:25:12.652Z,16.50
2023-05-21T20:27:41.627Z,16.50
2023-05-21T20:30:09.945Z,16.40
2023-05-21T20:32:38.031Z,16.20
2023-05-21T20:35:09.265Z,16.10
2023-05-21T20:37:36.985Z,16.00
2023-05-21T20:40:07.207Z,15.90
2023-05-21T20:42:37.314Z,15.70
2023-05-21T20:47:34.618Z,15.40
2023-05-21T20:50:03.980Z,15.40
2023-05-21T20:52:32.169Z,15.30
2023-05-21T20:57:30.859Z,15.10
2023-05-21T20:59:58.820Z,15.00
2023-05-21T21:02:27.094Z,14.90
2023-05-21T21:04:55.063Z,14.80
2023-05-21T21:07:24.386Z,14.80
2023-05-21T21:09:54.612Z,14.70
2023-05-21T21:12:26.603Z,14.70
2023-05-21T21:14:58.665Z,14.70
2023-05-21T21:17:26.474Z,14.60
2023-05-21T21:19:55.188Z,14.50
2023-05-21T21:22:26.128Z,14.50
2023-05-21T21:24:55.679Z,14.40
2023-05-21T21:27:23.782Z,14.40
2023-05-21T21:29:51.785Z,14.30
2023-05-21T21:34:47.916Z,14.20
2023-05-21T21:37:16.387Z,14.10
2023-05-21T21:39:45.269Z,14.10
2023-05-21T21:42:13.700Z,14.00
2023-05-21T21:44:42.983Z,13.90
2023-05-21T21:47:11.760Z,13.80
2023-05-21T21:49:40.071Z,13.80
2023-05-21T21:52:08.234Z,13.80
2023-05-21T21:54:36.629Z,13.70
2023-05-21T21:57:04.344Z,13.50
2023-05-21T21:59:32.503Z,13.50
2023-05-21T22:02:00.164Z,14.60
2023-05-21T22:04:28.114Z,13.40
2023-05-21T22:06:56.030Z,13.30
2023-05-21T22:09:24.001Z,13.20
2023-05-21T22:11:52.157Z,13.10
2023-05-21T22:14:19.780Z,13.00
2023-05-21T22:16:48.865Z,12.90
2023-05-21T22:19:20.586Z,12.80
2023-05-21T22:21:49.231Z,13.60
2023-05-21T22:24:30.930Z,12.70
2023-05-21T22:27:00.131Z,12.60
2023-05-21T22:29:27.892Z,12.60
2023-05-21T22:31:57.572Z,12.60
2023-05-21T22:34:25.443Z,12.50
2023-05-21T22:36:53.219Z,12.40
2023-05-21T22:39:20.871Z,12.20
2023-05-21T22:41:48.834Z,12.10
2023-05-21T22:44:16.750Z,12.10
2023-05-21T22:46:44.784Z,11.90
2023-05-21T22:49:12.541Z,11.90
2023-05-21T22:51:45.047Z,11.80
2023-05-21T22:54:12.976Z,11.70
2023-05-21T22:56:40.806Z,11.70
2023-05-21T22:59:08.760Z,11.70
2023-05-21T23:01:38.094Z,11.60
2023-05-21T23:04:06.008Z,11.50
2023-05-21T23:06:33.734Z,11.40
2023-05-21T23:09:01.678Z,11.40
2023-05-21T23:11:29.537Z,11.40
2023-05-21T23:13:57.130Z,11.30
2023-05-21T23:16:25.530Z,11.30
2023-05-21T23:18:55.105Z,11.20
2023-05-21T23:21:23.040Z,11.20
2023-05-21T23:23:50.910Z,11.20
2023-05-21T23:26:18.744Z,11.20
2023-05-21T23:28:47.485Z,11.00
2023-05-21T23:33:44.210Z,10.90
2023-05-21T23:36:12.149Z,10.90
2023-05-21T23:38:42.280Z,10.90
2023-05-21T23:41:10.251Z,10.80
2023-05-21T23:43:39.451Z,10.80
2023-05-21T23:46:08.501Z,10.80
2023-05-21T23:48:36.288Z,10.60
2023-05-21T23:51:04.198Z,10.50
2023-05-21T23:53:31.991Z,10.40
2023-05-21T23:56:03.697Z,10.30
2023-05-21T23:58:32.264Z,10.10
